createdAt,value
2022-09-03T00:02:22.225Z,69.09
2022-09-03T00:07:54.202Z,68.78
2022-09-03T00:13:25.679Z,69.52
2022-09-03T00:18:57.329Z,69.28
2022-09-03T00:24:29.071Z,68.82
2022-09-03T00:30:00.874Z,68.77
2022-09-03T00:35:32.553Z,69.5
2022-09-03T00:41:04.208Z,70.0
2022-09-03T00:46:42.436Z,70.94
2022-09-03T00:52:14.098Z,71.36
2022-09-03T00:57:48.035Z,72.22
2022-09-03T01:03:17.615Z,72.32
2022-09-03T01:08:49.637Z,72.55
2022-09-03T01:14:20.946Z,71.78
2022-09-03T01:19:52.833Z,72.25
2022-09-03T01:25:24.407Z,73.12
2022-09-03T01:30:56.238Z,73.17
2022-09-03T01:36:27.826Z,73.08
2022-09-03T01:41:59.598Z,73.14
2022-09-03T01:47:35.721Z,73.08
2022-09-03T01:53:07.401Z,71.77
2022-09-03T01:58:39.142Z,71.58
2022-09-03T02:04:10.846Z,72.13
2022-09-03T02:09:42.585Z,72.06
2022-09-03T02:15:14.377Z,72.8
2022-09-03T02:20:46.030Z,72.83
2022-09-03T02:26:17.766Z,71.53
2022-09-03T02:31:49.486Z,72.32
2022-09-03T02:37:21.258Z,72.46
2022-09-03T02:42:52.997Z,73.49
2022-09-03T02:48:28.968Z,73.61
2022-09-03T02:54:00.710Z,73.99
2022-09-03T02:59:32.630Z,71.98
2022-09-03T03:05:04.193Z,71.87
2022-09-03T03:10:35.890Z,72.07
2022-09-03T03:16:07.789Z,71.88
2022-09-03T03:21:39.322Z,71.95
2022-09-03T03:27:11.074Z,71.97
2022-09-03T03:32:42.767Z,72.19
2022-09-03T03:38:14.501Z,72.45
2022-09-03T03:43:46.249Z,72.3
2022-09-03T03:49:22.361Z,72.38
2022-09-03T03:54:55.790Z,72.5
2022-09-03T04:00:25.766Z,72.39
2022-09-03T04:05:57.497Z,72.87
2022-09-03T04:11:29.213Z,72.92
2022-09-03T04:17:01.054Z,73.44
2022-09-03T04:22:32.631Z,73.18
2022-09-03T04:28:04.405Z,73.62
2022-09-03T04:33:36.174Z,73.65
2022-09-03T04:39:07.831Z,73.37
2022-09-03T04:44:39.486Z,73.58
2022-09-03T04:50:15.662Z,74.02
2022-09-03T04:55:47.374Z,74.52
2022-09-03T05:01:19.253Z,74.57
2022-09-03T05:06:50.793Z,74.12
2022-09-03T05:12:22.573Z,75.1
2022-09-03T05:17:54.382Z,75.79
2022-09-03T05:23:25.994Z,76.26
2022-09-03T05:28:57.743Z,75.87
2022-09-03T05:34:29.434Z,76.44
2022-09-03T05:40:01.347Z,76.76
2022-09-03T05:45:32.945Z,77.33
2022-09-03T05:51:08.997Z,77.31
2022-09-03T05:56:40.721Z,76.69
2022-09-03T06:02:12.699Z,77.66
2022-09-03T06:07:44.217Z,77.78
2022-09-03T06:13:15.995Z,77.68
2022-09-03T06:18:47.586Z,77.12
2022-09-03T06:24:20.487Z,77.29
2022-09-03T06:29:51.090Z,77.32
2022-09-03T06:35:22.788Z,77.5
2022-09-03T06:40:54.491Z,77.33
2022-09-03T06:46:26.181Z,77.36
2022-09-03T06:52:02.314Z,76.99
2022-09-03T06:57:34.030Z,76.85
2022-09-03T07:03:05.914Z,77.35
2022-09-03T07:08:37.508Z,76.62
2022-09-03T07:14:09.207Z,77.13
2022-09-03T07:19:40.907Z,77.64
2022-09-03T07:25:12.732Z,78.36
2022-09-03T07:30:44.477Z,77.0
2022-09-03T07:36:17.274Z,77.14
2022-09-03T07:41:47.817Z,77.66
2022-09-03T07:47:27.330Z,76.56
2022-09-03T07:52:56.065Z,77.59
2022-09-03T07:58:27.383Z,79.0
2022-09-03T08:03:59.177Z,79.3
2022-09-03T08:09:30.773Z,80.96
2022-09-03T08:15:02.533Z,80.52
2022-09-03T08:20:34.242Z,81.2
2022-09-03T08:26:05.957Z,81.0
2022-09-03T08:31:37.773Z,80.46
2022-09-03T08:37:09.418Z,80.67
2022-09-03T08:42:41.132Z,81.29
2022-09-03T08:48:12.860Z,82.4
2022-09-03T08:53:48.972Z,83.12
2022-09-03T08:59:20.660Z,82.51
2022-09-03T09:04:52.854Z,82.17
2022-09-03T09:10:24.121Z,81.0
2022-09-03T09:15:55.911Z,81.43
2022-09-03T09:21:28.272Z,80.59
2022-09-03T09:26:59.264Z,80.89
2022-09-03T09:32:30.935Z,80.83
2022-09-03T09:38:02.756Z,79.49
2022-09-03T09:43:34.468Z,79.55
2022-09-03T09:49:06.222Z,77.88
2022-09-03T09:54:44.349Z,78.2
2022-09-03T10:00:16.020Z,77.84
2022-09-03T10:05:47.723Z,77.26
2022-09-03T10:11:19.423Z,76.48
2022-09-03T10:16:51.250Z,77.23
2022-09-03T10:22:22.875Z,75.01
2022-09-03T10:27:54.699Z,74.61
2022-09-03T10:33:26.405Z,73.8
2022-09-03T10:38:58.072Z,73.4
2022-09-03T10:44:29.757Z,74.39
2022-09-03T10:50:01.466Z,73.12
2022-09-03T10:55:37.602Z,72.68
2022-09-03T11:01:09.445Z,72.22
2022-09-03T11:06:41.054Z,72.6
2022-09-03T11:12:12.722Z,71.82
2022-09-03T11:17:44.926Z,72.22
2022-09-03T11:23:16.182Z,72.61
2022-09-03T11:28:47.934Z,72.29
2022-09-03T11:34:32.973Z,72.11
2022-09-03T11:39:51.492Z,72.51
2022-09-03T11:45:23.110Z,72.24
2022-09-03T11:50:54.862Z,71.55
2022-09-03T11:56:30.888Z,71.39
2022-09-03T12:02:02.826Z,72.35
2022-09-03T12:07:34.454Z,72.37
2022-09-03T12:13:06.162Z,73.14
2022-09-03T12:18:37.832Z,73.25
2022-09-03T12:24:09.623Z,74.5
2022-09-03T12:29:41.318Z,74.15
2022-09-03T12:35:13.665Z,74.93
2022-09-03T12:41:23.299Z,77.01
2022-09-03T12:46:18.133Z,82.18
2022-09-03T12:51:55.048Z,88.88
2022-09-03T12:57:24.349Z,91.91
2022-09-03T13:02:56.085Z,91.69
2022-09-03T13:08:27.944Z,93.92
2022-09-03T13:13:59.572Z,95.89
2022-09-03T13:19:31.221Z,96.02
2022-09-03T13:25:03.025Z,96.15
2022-09-03T13:30:34.771Z,99.04
2022-09-03T13:36:06.401Z,95.19
2022-09-03T13:41:38.193Z,90.49
2022-09-03T13:47:09.881Z,90.07
2022-09-03T13:52:41.613Z,89.11
2022-09-03T13:58:17.742Z,90.03
2022-09-03T14:03:49.801Z,91.12
2022-09-03T14:09:21.201Z,93.8
2022-09-03T14:14:52.865Z,91.66
2022-09-03T14:20:24.574Z,93.12
2022-09-03T14:25:56.339Z,93.04
2022-09-03T14:31:28.441Z,94.94
2022-09-03T14:36:59.753Z,93.49
2022-09-03T14:42:31.485Z,92.96
2022-09-03T14:48:03.183Z,95.11
2022-09-03T14:53:34.953Z,95.68
2022-09-03T14:59:11.031Z,96.46
2022-09-03T15:04:42.760Z,96.07
2022-09-03T15:10:14.451Z,95.42
2022-09-03T15:15:46.666Z,97.17
2022-09-03T15:21:17.938Z,93.11
2022-09-03T15:26:49.639Z,91.4
2022-09-03T15:32:21.389Z,91.22
2022-09-03T15:37:53.131Z,90.08
2022-09-03T15:43:24.993Z,89.65
2022-09-03T15:48:56.529Z,88.85
2022-09-03T15:54:28.230Z,88.16
2022-09-03T16:00:04.394Z,89.72
2022-09-03T16:05:36.299Z,88.85
2022-09-03T16:11:07.846Z,89.76
2022-09-03T16:16:39.728Z,89.15
2022-09-03T16:22:11.253Z,89.56
2022-09-03T16:27:43.072Z,89.41
2022-09-03T16:33:14.698Z,90.61
2022-09-03T16:38:46.448Z,90.75
2022-09-03T16:44:18.219Z,91.21
2022-09-03T16:49:49.906Z,89.95
2022-09-03T16:55:21.582Z,88.89
2022-09-03T17:00:57.898Z,91.65
2022-09-03T17:06:29.409Z,90.58
2022-09-03T17:12:01.150Z,89.9
2022-09-03T17:17:32.878Z,89.68
2022-09-03T17:23:04.589Z,89.73
2022-09-03T17:28:36.286Z,90.14
2022-09-03T17:34:08.077Z,90.34
2022-09-03T17:39:39.925Z,91.38
2022-09-03T17:45:11.523Z,92.13
2022-09-03T17:50:43.267Z,92.1
2022-09-03T17:56:18.819Z,92.57
2022-09-03T18:01:53.373Z,92.98
2022-09-03T18:07:22.801Z,93.32
2022-09-03T18:13:04.322Z,93.35
2022-09-03T18:18:26.209Z,93.69
2022-09-03T18:23:57.977Z,93.55
2022-09-03T18:24:51.410Z,93.7
2022-09-03T18:30:17.320Z,94.08
2022-09-03T18:35:49.033Z,93.47
2022-09-03T18:41:20.786Z,93.77
2022-09-03T18:48:01.308Z,93.81
2022-09-03T18:52:24.217Z,94.15
2022-09-03T18:57:55.951Z,94.68
2022-09-03T19:03:27.689Z,94.14
2022-09-03T19:08:59.353Z,95.43
2022-09-03T19:14:31.169Z,95.45
2022-09-03T19:20:02.977Z,96.01
2022-09-03T19:25:38.936Z,95.68
2022-09-03T19:31:10.691Z,95.39
2022-09-03T19:36:42.447Z,95.55
2022-09-03T19:42:14.463Z,95.8
2022-09-03T19:47:45.917Z,95.93
2022-09-03T19:53:17.622Z,95.39
2022-09-03T19:58:49.303Z,95.04
2022-09-03T20:04:20.964Z,95.7
2022-09-03T20:09:52.815Z,95.71
2022-09-03T20:15:24.638Z,95.94
2022-09-03T20:20:56.216Z,95.88
2022-09-03T20:26:32.410Z,96.16
2022-09-03T20:32:04.094Z,96.9
2022-09-03T20:37:35.825Z,97.23
2022-09-03T20:43:07.530Z,98.42
2022-09-03T20:48:39.244Z,98.5
2022-09-03T20:54:10.946Z,98.38
2022-09-03T20:59:42.665Z,96.92
2022-09-03T21:05:14.419Z,98.69
2022-09-03T21:10:46.077Z,98.39
2022-09-03T21:16:17.951Z,99.36
2022-09-03T21:21:49.590Z,100.0
2022-09-03T21:27:25.747Z,100.0
2022-09-03T21:32:57.401Z,99.97
2022-09-03T21:38:29.129Z,99.8
2022-09-03T21:44:00.810Z,99.86
2022-09-03T21:49:33.094Z,100.0
2022-09-03T21:55:04.420Z,100.0
2022-09-03T22:00:36.002Z,100.0
2022-09-03T22:06:07.722Z,100.0
2022-09-03T22:11:39.450Z,100.0
2022-09-03T22:17:11.198Z,100.0
2022-09-03T22:22:42.897Z,100.0
2022-09-03T22:28:19.006Z,100.0
2022-09-03T22:33:50.735Z,100.0
2022-09-03T22:39:22.536Z,100.0
2022-09-03T22:44:54.223Z,100.0
2022-09-03T22:50:25.948Z,100.0
2022-09-03T22:55:57.639Z,100.0
2022-09-03T23:01:29.417Z,100.0
2022-09-03T23:07:01.194Z,100.0
2022-09-03T23:12:32.818Z,100.0
2022-09-03T23:18:04.910Z,100.0
2022-09-03T23:23:36.245Z,100.0
2022-09-03T23:29:12.339Z,100.0
2022-09-03T23:34:44.155Z,100.0
2022-09-03T23:40:15.881Z,100.0
2022-09-03T23:45:47.657Z,100.0
2022-09-03T23:51:19.246Z,100.0
2022-09-03T23:56:50.917Z,100.0
